createdAt,value
2022-08-02T00:03:37.656Z,18.90
2022-08-02T00:08:40.165Z,18.09
2022-08-02T00:13:43.013Z,18.44
2022-08-02T00:18:47.050Z,18.84
2022-08-02T00:24:27.713Z,18.85
2022-08-02T00:29:12.135Z,18.26
2022-08-02T00:34:28.703Z,18.52
2022-08-02T00:39:35.776Z,18.29
2022-08-02T00:44:38.502Z,17.41
2022-08-02T00:49:42.507Z,17.01
2022-08-02T00:54:45.021Z,16.63
2022-08-02T00:59:47.482Z,17.19
2022-08-02T01:04:51.310Z,17.47
2022-08-02T01:09:54.427Z,17.87
2022-08-02T01:14:59.563Z,17.98
2022-08-02T01:20:13.304Z,17.70
2022-08-02T01:25:30.254Z,17.93
2022-08-02T01:30:36.058Z,18.71
2022-08-02T01:35:50.514Z,18.26
2022-08-02T01:40:55.608Z,17.88
2022-08-02T01:46:00.573Z,18.35
2022-08-02T01:51:05.306Z,17.77
2022-08-02T01:56:10.102Z,18.26
2022-08-02T02:01:18.726Z,19.04
2022-08-02T02:06:24.006Z,18.70
2022-08-02T02:12:12.028Z,18.19
2022-08-02T02:16:50.858Z,17.76
2022-08-02T02:21:53.499Z,18.45
2022-08-02T02:26:59.957Z,18.52
2022-08-02T02:32:06.754Z,17.39
2022-08-02T02:37:15.013Z,17.40
2022-08-02T02:42:20.211Z,17.22
2022-08-02T02:47:41.526Z,17.49
2022-08-02T02:52:45.620Z,17.72
2022-08-02T02:57:48.806Z,17.60
2022-08-02T03:02:52.891Z,17.80
2022-08-02T03:07:55.450Z,17.84
2022-08-02T03:12:59.625Z,17.37
2022-08-02T03:18:03.489Z,17.17
2022-08-02T03:23:05.980Z,17.74
2022-08-02T03:28:09.622Z,18.06
2022-08-02T03:33:13.703Z,18.52
2022-08-02T03:38:17.387Z,18.95
2022-08-02T03:43:20.514Z,19.17
2022-08-02T03:48:34.339Z,19.20
2022-08-02T03:53:38.749Z,19.42
2022-08-02T03:58:43.651Z,19.28
2022-08-02T04:03:50.906Z,19.52
2022-08-02T04:08:53.534Z,19.73
2022-08-02T04:13:56.624Z,20.01
2022-08-02T04:19:03.338Z,19.93
2022-08-02T04:24:10.660Z,20.12
2022-08-02T04:29:14.951Z,20.28
2022-08-02T04:34:18.799Z,20.52
2022-08-02T04:39:21.559Z,20.55
2022-08-02T04:44:24.194Z,20.43
2022-08-02T04:49:28.018Z,20.61
2022-08-02T04:54:30.498Z,20.65
2022-08-02T04:59:32.940Z,20.88
2022-08-02T05:04:36.713Z,20.75
2022-08-02T05:09:39.166Z,20.90
2022-08-02T05:14:41.600Z,21.05
2022-08-02T05:19:45.410Z,20.85
2022-08-02T05:24:47.920Z,20.95
2022-08-02T05:29:53.965Z,20.99
2022-08-02T05:35:02.754Z,21.23
2022-08-02T05:40:12.668Z,21.28
2022-08-02T05:45:15.723Z,21.32
2022-08-02T05:50:19.994Z,21.36
2022-08-02T05:55:28.288Z,21.39
2022-08-02T06:00:32.584Z,20.83
2022-08-02T06:05:42.386Z,20.88
2022-08-02T06:10:47.039Z,20.60
2022-08-02T06:15:53.954Z,19.14
2022-08-02T06:22:30.657Z,19.65
2022-08-02T06:26:24.872Z,20.13
2022-08-02T06:31:27.458Z,20.79
2022-08-02T06:36:39.855Z,20.66
2022-08-02T06:41:45.395Z,21.41
2022-08-02T06:47:11.947Z,21.89
2022-08-02T06:52:12.630Z,21.93
2022-08-02T06:57:15.555Z,21.92
2022-08-02T07:02:18.433Z,21.89
2022-08-02T07:07:22.245Z,22.07
2022-08-02T07:12:24.690Z,21.72
2022-08-02T07:17:27.520Z,21.29
2022-08-02T07:22:31.530Z,21.47
2022-08-02T07:27:34.156Z,21.77
2022-08-02T07:32:36.706Z,21.12
2022-08-02T07:37:55.448Z,21.72
2022-08-02T07:43:04.788Z,21.94
2022-08-02T07:48:08.496Z,21.41
2022-08-02T07:53:12.320Z,20.83
2022-08-02T07:58:14.758Z,21.74
2022-08-02T08:03:17.206Z,22.09
2022-08-02T08:08:21.222Z,22.38
2022-08-02T08:13:23.677Z,22.34
2022-08-02T08:18:26.169Z,22.47
2022-08-02T08:23:29.961Z,22.75
2022-08-02T08:28:32.519Z,22.90
2022-08-02T08:33:35.094Z,22.72
2022-08-02T08:38:38.855Z,23.16
2022-08-02T08:43:41.336Z,23.24
2022-08-02T08:48:50.207Z,22.91
2022-08-02T08:53:56.015Z,22.85
2022-08-02T08:58:58.807Z,22.85
2022-08-02T09:04:01.624Z,22.33
2022-08-02T09:09:05.682Z,23.22
2022-08-02T09:14:08.273Z,23.17
2022-08-02T09:19:23.339Z,23.03
2022-08-02T09:24:27.223Z,23.01
2022-08-02T09:29:44.439Z,23.02
2022-08-02T09:34:59.670Z,23.35
2022-08-02T09:40:05.667Z,24.14
2022-08-02T09:45:10.275Z,24.28
2022-08-02T09:50:15.105Z,24.64
2022-08-02T09:55:19.245Z,24.96
2022-08-02T10:00:37.247Z,25.17
2022-08-02T10:05:54.025Z,25.13
2022-08-02T10:11:03.667Z,24.93
2022-08-02T10:16:07.138Z,25.70
2022-08-02T10:21:15.880Z,26.15
2022-08-02T10:26:21.369Z,26.00
2022-08-02T10:31:28.398Z,27.53
2022-08-02T10:36:33.272Z,28.80
2022-08-02T10:41:44.958Z,30.13
2022-08-02T10:46:47.442Z,32.92
2022-08-02T10:51:57.685Z,34.28
2022-08-02T10:57:02.473Z,34.59
2022-08-02T11:02:07.010Z,31.62
2022-08-02T11:07:11.608Z,32.79
2022-08-02T11:12:16.633Z,32.61
2022-08-02T11:17:20.467Z,34.25
2022-08-02T11:22:25.793Z,32.80
2022-08-02T11:27:31.267Z,34.67
2022-08-02T11:32:36.099Z,30.82
2022-08-02T11:37:42.164Z,33.65
2022-08-02T11:42:50.316Z,34.39
2022-08-02T11:47:54.559Z,34.63
2022-08-02T11:52:57.160Z,34.02
2022-08-02T11:58:03.034Z,34.30
2022-08-02T12:03:09.057Z,35.08
2022-08-02T12:08:11.686Z,35.12
2022-08-02T12:13:15.688Z,34.74
2022-08-02T12:18:38.130Z,34.49
2022-08-02T12:24:00.117Z,33.90
2022-08-02T12:29:04.987Z,35.31
2022-08-02T12:34:16.927Z,35.08
2022-08-02T12:39:19.394Z,33.70
2022-08-02T12:44:23.204Z,34.95
2022-08-02T12:49:25.711Z,32.40
2022-08-02T12:54:32.139Z,33.80
2022-08-02T12:59:38.824Z,34.13
2022-08-02T13:04:42.117Z,33.89
2022-08-02T13:10:03.085Z,34.79
2022-08-02T13:15:12.423Z,33.77
2022-08-02T13:20:31.763Z,33.53
2022-08-02T13:25:34.407Z,33.55
2022-08-02T13:30:38.858Z,32.67
2022-08-02T13:35:41.453Z,32.82
2022-08-02T13:41:04.401Z,33.00
2022-08-02T13:46:09.080Z,32.93
2022-08-02T13:51:14.833Z,32.40
2022-08-02T13:56:17.594Z,31.91
2022-08-02T14:01:21.627Z,32.31
2022-08-02T14:06:24.315Z,32.04
2022-08-02T14:11:27.049Z,32.44
2022-08-02T14:16:33.263Z,31.86
2022-08-02T14:21:45.920Z,32.57
2022-08-02T14:26:49.892Z,32.39
2022-08-02T14:31:53.720Z,32.72
2022-08-02T14:36:56.390Z,32.82
2022-08-02T14:42:00.879Z,32.72
2022-08-02T14:47:05.937Z,33.51
2022-08-02T14:52:08.469Z,33.84
2022-08-02T14:57:11.775Z,33.36
2022-08-02T15:02:16.143Z,32.36
2022-08-02T15:07:18.807Z,32.51
2022-08-02T15:12:21.573Z,32.67
2022-08-02T15:17:25.435Z,32.72
2022-08-02T15:22:28.961Z,33.40
2022-08-02T15:27:31.517Z,33.40
2022-08-02T15:32:35.495Z,32.47
2022-08-02T15:37:41.321Z,32.26
2022-08-02T15:42:44.568Z,32.60
2022-08-02T15:47:50.681Z,31.85
2022-08-02T15:52:53.355Z,31.82
2022-08-02T15:57:56.038Z,31.65
2022-08-02T16:02:59.986Z,31.49
2022-08-02T16:08:02.690Z,31.44
2022-08-02T16:13:23.150Z,31.03
2022-08-02T16:18:26.937Z,31.18
2022-08-02T16:24:01.111Z,31.23
2022-08-02T16:28:52.213Z,31.34
2022-08-02T16:33:57.188Z,31.33
2022-08-02T16:38:59.960Z,31.26
2022-08-02T16:44:02.486Z,30.98
2022-08-02T16:49:07.217Z,31.20
2022-08-02T16:54:29.662Z,31.00
2022-08-02T16:59:42.780Z,31.04
2022-08-02T17:04:48.365Z,31.48
2022-08-02T17:10:02.350Z,31.86
2022-08-02T17:16:15.700Z,31.63
2022-08-02T17:20:32.512Z,30.89
2022-08-02T17:25:41.672Z,31.01
2022-08-02T17:30:44.449Z,31.15
2022-08-02T17:35:52.368Z,31.04
2022-08-02T17:40:58.653Z,30.66
2022-08-02T17:46:02.604Z,30.49
2022-08-02T17:51:07.040Z,30.70
2022-08-02T17:56:13.244Z,30.58
2022-08-02T18:01:24.262Z,30.29
2022-08-02T18:06:28.594Z,30.29
2022-08-02T18:11:51.877Z,30.33
2022-08-02T18:16:53.749Z,30.03
2022-08-02T18:21:57.623Z,29.92
2022-08-02T18:27:00.125Z,30.17
2022-08-02T18:32:03.163Z,29.87
2022-08-02T18:37:06.950Z,29.45
2022-08-02T18:42:10.893Z,28.99
2022-08-02T18:47:20.272Z,27.79
2022-08-02T18:52:30.734Z,27.00
2022-08-02T18:58:18.989Z,26.99
2022-08-02T19:02:58.630Z,26.36
2022-08-02T19:08:02.680Z,25.93
2022-08-02T19:13:06.178Z,25.53
2022-08-02T19:18:26.881Z,25.12
2022-08-02T19:23:33.852Z,24.00
2022-08-02T19:28:36.849Z,23.72
2022-08-02T19:34:04.382Z,23.35
2022-08-02T19:39:03.064Z,23.08
2022-08-02T19:44:23.042Z,22.71
2022-08-02T19:49:39.237Z,22.68
2022-08-02T19:54:54.500Z,23.00
2022-08-02T19:59:59.145Z,23.13
2022-08-02T20:05:08.175Z,22.38
2022-08-02T20:10:26.696Z,21.96
2022-08-02T20:15:56.142Z,21.96
2022-08-02T20:20:54.548Z,21.79
2022-08-02T20:26:02.518Z,22.16
2022-08-02T20:31:08.789Z,22.56
2022-08-02T20:36:14.443Z,22.33
2022-08-02T20:41:21.486Z,21.42
2022-08-02T20:46:25.070Z,21.26
2022-08-02T20:51:32.563Z,21.17
2022-08-02T20:56:38.827Z,21.08
2022-08-02T21:01:57.286Z,21.45
2022-08-02T21:07:00.845Z,22.29
2022-08-02T21:12:12.519Z,21.37
2022-08-02T21:17:22.594Z,20.51
2022-08-02T21:22:30.709Z,19.92
2022-08-02T21:27:51.615Z,20.02
2022-08-02T21:32:57.076Z,20.62
2022-08-02T21:38:00.463Z,20.22
2022-08-02T21:43:05.077Z,20.27
2022-08-02T21:48:12.039Z,20.49
2022-08-02T21:53:18.967Z,20.10
2022-08-02T21:58:40.855Z,19.75
2022-08-02T22:03:55.010Z,19.49
2022-08-02T22:08:58.784Z,19.99
2022-08-02T22:14:03.941Z,19.78
2022-08-02T22:19:07.020Z,19.26
2022-08-02T22:24:13.055Z,19.42
2022-08-02T22:29:24.055Z,19.19
2022-08-02T22:34:51.614Z,18.95
2022-08-02T22:40:08.714Z,20.01
2022-08-02T22:45:14.238Z,19.81
2022-08-02T22:50:17.901Z,20.22
2022-08-02T22:55:23.126Z,19.58
2022-08-02T23:00:28.155Z,18.69
2022-08-02T23:05:31.807Z,19.45
2022-08-02T23:10:34.950Z,19.90
2022-08-02T23:15:58.754Z,19.12
2022-08-02T23:21:01.937Z,18.63
2022-08-02T23:26:05.025Z,18.30
2022-08-02T23:31:34.125Z,19.30
2022-08-02T23:36:41.216Z,19.82
2022-08-02T23:41:44.307Z,19.34
2022-08-02T23:46:54.411Z,19.64
2022-08-02T23:52:01.415Z,19.33
2022-08-02T23:57:20.461Z,18.50
